createdAt,value
2023-02-09T00:05:53.148Z,-6.56
2023-02-09T00:16:02.360Z,-6.64
2023-02-09T00:26:12.741Z,-6.69
2023-02-09T00:46:26.867Z,-6.73
2023-02-09T00:56:34.327Z,-6.77
2023-02-09T01:06:41.938Z,-6.77
2023-02-09T01:16:49.489Z,-6.75
2023-02-09T01:26:56.712Z,-6.81
2023-02-09T01:37:03.773Z,-6.88
2023-02-09T01:47:14.548Z,-6.97
2023-02-09T01:57:26.651Z,-7.05
2023-02-09T02:07:40.084Z,-7.09
2023-02-09T02:17:50.799Z,-7.15
2023-02-09T02:27:59.982Z,-7.24
2023-02-09T02:38:05.862Z,-7.35
2023-02-09T02:48:17.365Z,-7.47
2023-02-09T02:58:27.002Z,-7.50
2023-02-09T03:08:48.258Z,-7.57
2023-02-09T03:19:06.461Z,-7.64
2023-02-09T03:29:15.203Z,-7.70
2023-02-09T03:39:19.990Z,-7.68
2023-02-09T03:49:26.193Z,-7.76
2023-02-09T03:59:33.790Z,-7.84
2023-02-09T04:09:40.768Z,-7.86
2023-02-09T04:19:48.437Z,-7.81
2023-02-09T04:29:55.468Z,-7.72
2023-02-09T04:40:02.690Z,-7.76
2023-02-09T04:50:10.633Z,-7.85
2023-02-09T05:00:18.301Z,-7.91
2023-02-09T05:10:25.457Z,-7.97
2023-02-09T05:20:32.426Z,-8.03
2023-02-09T05:30:39.668Z,-7.94
2023-02-09T05:40:47.354Z,-7.73
2023-02-09T05:50:55.332Z,-7.61
2023-02-09T06:01:02.893Z,-7.59
2023-02-09T06:11:10.918Z,-7.61
2023-02-09T06:21:19.026Z,-7.60
2023-02-09T06:31:26.482Z,-7.49
2023-02-09T06:41:33.941Z,-7.31
2023-02-09T06:51:41.501Z,-6.96
2023-02-09T07:01:52.184Z,-6.49
2023-02-09T07:12:00.648Z,-5.90
2023-02-09T07:22:08.037Z,-5.37
2023-02-09T07:32:15.822Z,-5.02
2023-02-09T07:42:23.459Z,-4.13
2023-02-09T07:52:30.862Z,-2.63
2023-02-09T08:02:40.186Z,-2.16
2023-02-09T08:13:05.186Z,-0.77
2023-02-09T08:23:17.701Z,0.60
2023-02-09T08:33:25.832Z,1.29
2023-02-09T08:43:34.085Z,1.15
2023-02-09T08:53:41.606Z,0.37
2023-02-09T09:03:49.917Z,-0.04
2023-02-09T09:13:57.501Z,-0.30
2023-02-09T09:24:05.236Z,-0.09
2023-02-09T09:34:12.935Z,-0.04
2023-02-09T09:44:23.740Z,0.44
2023-02-09T09:54:34.536Z,0.80
2023-02-09T10:04:41.853Z,1.07
2023-02-09T10:14:49.891Z,1.34
2023-02-09T10:24:57.812Z,1.58
2023-02-09T10:35:08.322Z,1.81
2023-02-09T10:45:21.564Z,1.99
2023-02-09T10:55:27.949Z,2.00
2023-02-09T11:05:34.067Z,1.98
2023-02-09T11:15:49.145Z,2.09
2023-02-09T11:25:54.808Z,2.17
2023-02-09T11:36:01.715Z,2.25
2023-02-09T11:46:13.835Z,2.25
2023-02-09T11:56:24.945Z,2.24
2023-02-09T12:06:36.045Z,2.26
2023-02-09T12:16:44.141Z,2.22
2023-02-09T12:26:58.288Z,2.29
2023-02-09T12:37:28.616Z,2.28
2023-02-09T12:47:47.383Z,2.20
2023-02-09T12:57:55.204Z,2.21
2023-02-09T13:08:04.998Z,2.33
2023-02-09T13:18:10.656Z,2.33
2023-02-09T13:28:22.967Z,2.26
2023-02-09T13:38:34.574Z,2.26
2023-02-09T13:48:42.221Z,2.22
2023-02-09T13:58:50.740Z,2.17
2023-02-09T14:08:59.190Z,2.08
2023-02-09T14:29:34.055Z,1.88
2023-02-09T14:39:53.077Z,1.78
2023-02-09T14:49:57.704Z,1.61
2023-02-09T15:00:14.614Z,1.48
2023-02-09T15:10:20.812Z,1.31
2023-02-09T15:20:30.838Z,1.08
2023-02-09T15:30:37.691Z,0.84
2023-02-09T15:41:04.328Z,0.60
2023-02-09T15:51:12.482Z,0.31
2023-02-09T16:01:20.741Z,0.04
2023-02-09T16:11:33.604Z,-0.19
2023-02-09T16:21:40.519Z,-0.37
2023-02-09T16:31:47.724Z,-0.52
2023-02-09T16:41:55.477Z,-0.64
2023-02-09T16:52:02.523Z,-0.76
2023-02-09T17:02:32.614Z,-0.90
2023-02-09T17:12:40.554Z,-1.02
2023-02-09T17:22:48.126Z,-1.11
2023-02-09T17:32:53.741Z,-1.24
2023-02-09T17:43:00.110Z,-1.33
2023-02-09T17:53:14.026Z,-1.41
2023-02-09T18:03:23.493Z,-1.42
2023-02-09T18:13:29.141Z,-1.44
2023-02-09T18:23:36.265Z,-1.44
2023-02-09T18:33:44.928Z,-1.40
2023-02-09T18:43:54.275Z,-1.38
2023-02-09T19:04:06.834Z,-1.41
2023-02-09T19:14:31.662Z,-1.41
2023-02-09T19:24:39.154Z,-1.37
2023-02-09T19:34:46.259Z,-1.40
2023-02-09T19:44:55.465Z,-1.48
2023-02-09T19:55:02.645Z,-1.50
2023-02-09T20:05:10.819Z,-1.52
2023-02-09T20:15:18.887Z,-1.54
2023-02-09T20:25:26.058Z,-1.58
2023-02-09T20:35:32.212Z,-1.56
2023-02-09T20:45:52.884Z,-1.58
2023-02-09T20:55:58.647Z,-1.62
2023-02-09T21:16:15.645Z,-1.70
2023-02-09T21:26:23.064Z,-1.74
2023-02-09T21:36:29.200Z,-1.80
2023-02-09T21:46:37.896Z,-1.86
2023-02-09T21:56:46.413Z,-1.90
2023-02-09T22:06:53.775Z,-1.90
2023-02-09T22:17:01.062Z,-1.92
2023-02-09T22:27:11.555Z,-1.83
2023-02-09T22:37:18.959Z,-1.75
2023-02-09T22:47:26.366Z,-1.82
2023-02-09T22:57:33.515Z,-1.90
2023-02-09T23:07:41.722Z,-1.97
2023-02-09T23:17:48.942Z,-2.00
2023-02-09T23:27:56.338Z,-2.03
2023-02-09T23:38:03.426Z,-2.04
2023-02-09T23:48:11.023Z,-2.08
2023-02-09T23:58:18.321Z,-2.11
